sensor_id;sensor_type;location;lat;lon;timestamp;pressure;altitude;pressure_sealevel;temperature;humidity
48942;BME280;35340;52.378;4.648;2023-02-11T00:01:08;103403.34;;;17.17;48.86
48942;BME280;35340;52.378;4.648;2023-02-11T00:03:34;103407.75;;;17.18;48.94
48942;BME280;35340;52.378;4.648;2023-02-11T00:06:02;103392.13;;;17.18;49.02
48942;BME280;35340;52.378;4.648;2023-02-11T00:08:27;103399.94;;;17.18;49.01
48942;BME280;35340;52.378;4.648;2023-02-11T00:10:55;103392.88;;;17.16;48.87
48942;BME280;35340;52.378;4.648;2023-02-11T00:13:21;103397.28;;;17.17;48.88
48942;BME280;35340;52.378;4.648;2023-02-11T00:15:48;103384.22;;;17.15;48.77
48942;BME280;35340;52.378;4.648;2023-02-11T00:18:14;103391.13;;;17.15;48.81
48942;BME280;35340;52.378;4.648;2023-02-11T00:20:40;103387.66;;;17.14;48.84
48942;BME280;35340;52.378;4.648;2023-02-11T00:23:06;103400.66;;;17.14;48.89
48942;BME280;35340;52.378;4.648;2023-02-11T00:25:31;103394.59;;;17.14;49.25
48942;BME280;35340;52.378;4.648;2023-02-11T00:27:57;103399.78;;;17.14;48.58
48942;BME280;35340;52.378;4.648;2023-02-11T00:30:23;103402.41;;;17.14;48.92
48942;BME280;35340;52.378;4.648;2023-02-11T00:32:48;103413.63;;;17.13;48.91
48942;BME280;35340;52.378;4.648;2023-02-11T00:35:14;103410.13;;;17.12;48.69
48942;BME280;35340;52.378;4.648;2023-02-11T00:37:39;103410.13;;;17.12;48.74
48942;BME280;35340;52.378;4.648;2023-02-11T00:40:05;103405.75;;;17.11;48.83
48942;BME280;35340;52.378;4.648;2023-02-11T00:42:31;103402.34;;;17.12;48.85
48942;BME280;35340;52.378;4.648;2023-02-11T00:44:57;103403.16;;;17.11;49.02
48942;BME280;35340;52.378;4.648;2023-02-11T00:47:22;103402.28;;;17.11;48.89
48942;BME280;35340;52.378;4.648;2023-02-11T00:49:47;103401.47;;;17.12;48.61
48942;BME280;35340;52.378;4.648;2023-02-11T00:52:13;103391.88;;;17.11;48.88
48942;BME280;35340;52.378;4.648;2023-02-11T00:54:39;103379.72;;;17.10;48.74
48942;BME280;35340;52.378;4.648;2023-02-11T00:57:04;103371.00;;;17.09;48.61
48942;BME280;35340;52.378;4.648;2023-02-11T00:59:30;103371.00;;;17.09;48.64
48942;BME280;35340;52.378;4.648;2023-02-11T01:01:55;103373.59;;;17.09;48.76
48942;BME280;35340;52.378;4.648;2023-02-11T01:04:21;103376.09;;;17.06;48.71
48942;BME280;35340;52.378;4.648;2023-02-11T01:06:46;103383.13;;;17.09;48.71
48942;BME280;35340;52.378;4.648;2023-02-11T01:09:11;103376.16;;;17.08;48.95
48942;BME280;35340;52.378;4.648;2023-02-11T01:16:48;103383.03;;;17.05;48.91
48942;BME280;35340;52.378;4.648;2023-02-11T01:19:13;103381.38;;;17.08;48.82
48942;BME280;35340;52.378;4.648;2023-02-11T01:21:38;103382.16;;;17.05;48.87
48942;BME280;35340;52.378;4.648;2023-02-11T01:24:04;103389.91;;;17.03;48.66
48942;BME280;35340;52.378;4.648;2023-02-11T01:29:05;103386.44;;;17.03;48.75
48942;BME280;35340;52.378;4.648;2023-02-11T01:31:30;103380.38;;;17.04;48.96
48942;BME280;35340;52.378;4.648;2023-02-11T01:33:56;103369.09;;;17.03;48.88
48942;BME280;35340;52.378;4.648;2023-02-11T01:36:21;103364.75;;;17.04;48.83
48942;BME280;35340;52.378;4.648;2023-02-11T01:38:47;103367.31;;;17.02;48.67
48942;BME280;35340;52.378;4.648;2023-02-11T01:41:14;103376.91;;;17.03;48.78
48942;BME280;35340;52.378;4.648;2023-02-11T01:43:45;103375.09;;;17.02;48.74
48942;BME280;35340;52.378;4.648;2023-02-11T01:49:11;103375.97;;;17.01;48.78
48942;BME280;35340;52.378;4.648;2023-02-11T01:51:42;103371.63;;;17.02;48.98
48942;BME280;35340;52.378;4.648;2023-02-11T01:54:11;103365.56;;;17.01;48.55
48942;BME280;35340;52.378;4.648;2023-02-11T01:56:58;103362.06;;;17.01;48.72
48942;BME280;35340;52.378;4.648;2023-02-11T01:59:47;103358.56;;;17.00;48.92
48942;BME280;35340;52.378;4.648;2023-02-11T02:02:16;103357.69;;;17.00;48.65
48942;BME280;35340;52.378;4.648;2023-02-11T02:04:52;103366.34;;;16.99;48.80
48942;BME280;35340;52.378;4.648;2023-02-11T02:08:28;103368.03;;;16.98;48.83
48942;BME280;35340;52.378;4.648;2023-02-11T02:10:36;103381.09;;;17.00;48.85
48942;BME280;35340;52.378;4.648;2023-02-11T02:13:04;103371.53;;;16.99;48.76
48942;BME280;35340;52.378;4.648;2023-02-11T02:15:35;103381.94;;;16.99;48.65
48942;BME280;35340;52.378;4.648;2023-02-11T02:23:57;103366.28;;;16.97;48.80
48942;BME280;35340;52.378;4.648;2023-02-11T02:27:10;103365.41;;;16.97;48.98
48942;BME280;35340;52.378;4.648;2023-02-11T02:34:53;103366.22;;;16.96;48.74
48942;BME280;35340;52.378;4.648;2023-02-11T02:40:31;103376.63;;;16.96;49.08
48942;BME280;35340;52.378;4.648;2023-02-11T02:43:05;103371.44;;;16.96;48.68
48942;BME280;35340;52.378;4.648;2023-02-11T02:45:32;103372.28;;;16.95;49.00
48942;BME280;35340;52.378;4.648;2023-02-11T02:47:57;103367.00;;;16.93;48.86
48942;BME280;35340;52.378;4.648;2023-02-11T02:50:30;103367.84;;;16.92;48.91
48942;BME280;35340;52.378;4.648;2023-02-11T02:55:43;103360.94;;;16.93;48.95
48942;BME280;35340;52.378;4.648;2023-02-11T03:00:59;103355.72;;;16.93;48.82
48942;BME280;35340;52.378;4.648;2023-02-11T03:03:47;103353.13;;;16.93;49.02
48942;BME280;35340;52.378;4.648;2023-02-11T03:06:40;103358.28;;;16.91;48.92
48942;BME280;35340;52.378;4.648;2023-02-11T03:09:21;103358.34;;;16.93;49.00
48942;BME280;35340;52.378;4.648;2023-02-11T03:11:48;103357.44;;;16.92;48.83
48942;BME280;35340;52.378;4.648;2023-02-11T03:14:16;103346.13;;;16.90;48.79
48942;BME280;35340;52.378;4.648;2023-02-11T03:16:43;103344.38;;;16.91;48.78
48942;BME280;35340;52.378;4.648;2023-02-11T03:22:07;103346.13;;;16.90;48.87
48942;BME280;35340;52.378;4.648;2023-02-11T03:24:37;103348.72;;;16.90;49.11
48942;BME280;35340;52.378;4.648;2023-02-11T03:30:15;103348.59;;;16.87;49.06
48942;BME280;35340;52.378;4.648;2023-02-11T03:33:00;103344.31;;;16.88;49.13
48942;BME280;35340;52.378;4.648;2023-02-11T03:35:49;103348.59;;;16.87;48.83
48942;BME280;35340;52.378;4.648;2023-02-11T03:38:21;103339.91;;;16.86;49.10
48942;BME280;35340;52.378;4.648;2023-02-11T03:40:49;103341.63;;;16.86;48.95
48942;BME280;35340;52.378;4.648;2023-02-11T03:43:19;103337.25;;;16.85;48.99
48942;BME280;35340;52.378;4.648;2023-02-11T03:45:48;103352.09;;;16.88;48.92
48942;BME280;35340;52.378;4.648;2023-02-11T03:48:18;103350.31;;;16.86;49.25
48942;BME280;35340;52.378;4.648;2023-02-11T03:50:46;103341.63;;;16.86;49.14
48942;BME280;35340;52.378;4.648;2023-02-11T03:53:16;103340.78;;;16.87;49.11
48942;BME280;35340;52.378;4.648;2023-02-11T03:55:43;103337.38;;;16.88;48.96
48942;BME280;35340;52.378;4.648;2023-02-11T03:58:09;103329.50;;;16.86;49.11
48942;BME280;35340;52.378;4.648;2023-02-11T04:00:40;103326.09;;;16.88;49.05
48942;BME280;35340;52.378;4.648;2023-02-11T04:03:07;103338.25;;;16.89;48.86
48942;BME280;35340;52.378;4.648;2023-02-11T04:05:33;103341.78;;;16.91;48.87
48942;BME280;35340;52.378;4.648;2023-02-11T04:07:59;103345.31;;;16.93;48.82
48942;BME280;35340;52.378;4.648;2023-02-11T04:10:24;103341.00;;;16.93;48.91
48942;BME280;35340;52.378;4.648;2023-02-11T04:12:50;103339.28;;;16.94;49.04
48942;BME280;35340;52.378;4.648;2023-02-11T04:15:15;103339.28;;;16.94;48.77
48942;BME280;35340;52.378;4.648;2023-02-11T04:17:41;103337.59;;;16.94;49.04
48942;BME280;35340;52.378;4.648;2023-02-11T04:20:07;103334.13;;;16.95;49.05
48942;BME280;35340;52.378;4.648;2023-02-11T04:22:33;103323.72;;;16.95;48.98
48942;BME280;35340;52.378;4.648;2023-02-11T04:24:58;103324.59;;;16.96;48.98
48942;BME280;35340;52.378;4.648;2023-02-11T04:27:23;103315.09;;;16.96;49.00
48942;BME280;35340;52.378;4.648;2023-02-11T04:29:49;103324.59;;;16.96;48.94
48942;BME280;35340;52.378;4.648;2023-02-11T04:32:15;103328.13;;;16.98;48.91
48942;BME280;35340;52.378;4.648;2023-02-11T04:34:40;103321.19;;;16.97;48.96
48942;BME280;35340;52.378;4.648;2023-02-11T04:37:06;103324.66;;;16.97;48.98
48942;BME280;35340;52.378;4.648;2023-02-11T04:39:32;103323.78;;;16.97;48.92
48942;BME280;35340;52.378;4.648;2023-02-11T04:41:58;103317.72;;;16.96;49.14
48942;BME280;35340;52.378;4.648;2023-02-11T04:44:23;103317.72;;;16.96;49.04
48942;BME280;35340;52.378;4.648;2023-02-11T04:46:48;103322.91;;;16.96;49.08
48942;BME280;35340;52.378;4.648;2023-02-11T04:49:15;103321.13;;;16.95;49.24
48942;BME280;35340;52.378;4.648;2023-02-11T04:51:42;103328.88;;;16.94;49.00
48942;BME280;35340;52.378;4.648;2023-02-11T04:54:09;103329.78;;;16.94;49.11
48942;BME280;35340;52.378;4.648;2023-02-11T04:56:34;103335.78;;;16.93;49.29
48942;BME280;35340;52.378;4.648;2023-02-11T04:58:59;103339.28;;;16.94;49.22
48942;BME280;35340;52.378;4.648;2023-02-11T05:01:25;103343.59;;;16.93;49.17
48942;BME280;35340;52.378;4.648;2023-02-11T05:03:50;103343.59;;;16.93;49.17
48942;BME280;35340;52.378;4.648;2023-02-11T05:06:16;103350.53;;;16.93;49.07
48942;BME280;35340;52.378;4.648;2023-02-11T05:08:42;103355.78;;;16.94;49.07
48942;BME280;35340;52.378;4.648;2023-02-11T05:11:14;103354.88;;;16.94;49.38
48942;BME280;35340;52.378;4.648;2023-02-11T05:13:39;103359.25;;;16.95;49.28
48942;BME280;35340;52.378;4.648;2023-02-11T05:16:05;103363.63;;;16.96;49.20
48942;BME280;35340;52.378;4.648;2023-02-11T05:18:30;103367.06;;;16.95;49.33
48942;BME280;35340;52.378;4.648;2023-02-11T05:20:56;103374.03;;;16.96;49.21
48942;BME280;35340;52.378;4.648;2023-02-11T05:23:21;103375.75;;;16.95;49.33
48942;BME280;35340;52.378;4.648;2023-02-11T05:25:47;103377.56;;;16.98;49.17
48942;BME280;35340;52.378;4.648;2023-02-11T05:28:15;103366.28;;;16.97;49.26
48942;BME280;35340;52.378;4.648;2023-02-11T05:30:41;103364.56;;;16.98;49.20
48942;BME280;35340;52.378;4.648;2023-02-11T05:33:06;103364.56;;;16.98;49.38
48942;BME280;35340;52.378;4.648;2023-02-11T05:35:32;103359.34;;;16.98;49.38
48942;BME280;35340;52.378;4.648;2023-02-11T05:37:57;103357.63;;;16.98;49.34
48942;BME280;35340;52.378;4.648;2023-02-11T05:40:22;103360.22;;;16.98;49.67
48942;BME280;35340;52.378;4.648;2023-02-11T05:42:48;103364.63;;;16.99;49.21
48942;BME280;35340;52.378;4.648;2023-02-11T05:45:13;103368.09;;;17.00;49.52
48942;BME280;35340;52.378;4.648;2023-02-11T05:47:38;103362.91;;;17.00;49.36
48942;BME280;35340;52.378;4.648;2023-02-11T05:50:04;103366.38;;;17.00;49.31
48942;BME280;35340;52.378;4.648;2023-02-11T05:52:30;103370.69;;;17.00;49.43
48942;BME280;35340;52.378;4.648;2023-02-11T05:54:55;103375.09;;;17.01;49.45
48942;BME280;35340;52.378;4.648;2023-02-11T05:57:21;103364.69;;;17.01;49.49
48942;BME280;35340;52.378;4.648;2023-02-11T05:59:46;103368.97;;;17.00;49.44
48942;BME280;35340;52.378;4.648;2023-02-11T06:02:12;103372.50;;;17.02;49.48
48942;BME280;35340;52.378;4.648;2023-02-11T06:04:37;103377.69;;;17.01;49.53
48942;BME280;35340;52.378;4.648;2023-02-11T06:07:03;103382.91;;;17.02;49.43
48942;BME280;35340;52.378;4.648;2023-02-11T06:09:29;103387.25;;;17.02;49.55
48942;BME280;35340;52.378;4.648;2023-02-11T06:11:54;103380.31;;;17.02;49.48
48942;BME280;35340;52.378;4.648;2023-02-11T06:14:20;103377.72;;;17.02;49.59
48942;BME280;35340;52.378;4.648;2023-02-11T06:16:45;103371.63;;;17.02;49.49
48942;BME280;35340;52.378;4.648;2023-02-11T06:19:11;103371.69;;;17.03;49.63
48942;BME280;35340;52.378;4.648;2023-02-11T06:21:37;103371.63;;;17.02;49.49
48942;BME280;35340;52.378;4.648;2023-02-11T06:24:04;103369.09;;;17.03;49.47
48942;BME280;35340;52.378;4.648;2023-02-11T06:26:30;103369.09;;;17.03;49.78
48942;BME280;35340;52.378;4.648;2023-02-11T06:28:55;103369.09;;;17.03;49.61
48942;BME280;35340;52.378;4.648;2023-02-11T06:31:24;103365.63;;;17.04;49.48
48942;BME280;35340;52.378;4.648;2023-02-11T06:33:49;103365.63;;;17.04;49.63
48942;BME280;35340;52.378;4.648;2023-02-11T06:36:19;103362.22;;;17.05;49.50
48942;BME280;35340;52.378;4.648;2023-02-11T06:38:45;103361.34;;;17.05;49.64
48942;BME280;35340;52.378;4.648;2023-02-11T06:41:13;103363.09;;;17.06;49.73
48942;BME280;35340;52.378;4.648;2023-02-11T06:43:39;103363.09;;;17.06;49.68
48942;BME280;35340;52.378;4.648;2023-02-11T06:46:05;103359.63;;;17.05;49.78
48942;BME280;35340;52.378;4.648;2023-02-11T06:48:32;103357.91;;;17.06;49.58
48942;BME280;35340;52.378;4.648;2023-02-11T06:51:05;103362.22;;;17.05;49.76
48942;BME280;35340;52.378;4.648;2023-02-11T06:53:35;103358.78;;;17.06;49.81
48942;BME280;35340;52.378;4.648;2023-02-11T06:56:02;103368.38;;;17.08;49.81
48942;BME280;35340;52.378;4.648;2023-02-11T06:58:28;103369.19;;;17.06;49.71
48942;BME280;35340;52.378;4.648;2023-02-11T07:00:53;103377.84;;;17.07;49.62
48942;BME280;35340;52.378;4.648;2023-02-11T07:03:19;103378.72;;;17.06;49.84
48942;BME280;35340;52.378;4.648;2023-02-11T07:05:44;103386.56;;;17.08;49.82
48942;BME280;35340;52.378;4.648;2023-02-11T07:08:09;103381.38;;;17.08;49.69
48942;BME280;35340;52.378;4.648;2023-02-11T07:10:35;103379.66;;;17.08;49.76
48942;BME280;35340;52.378;4.648;2023-02-11T07:13:00;103382.25;;;17.08;49.90
48942;BME280;35340;52.378;4.648;2023-02-11T07:15:26;103379.66;;;17.08;49.77
48942;BME280;35340;52.378;4.648;2023-02-11T07:17:51;103390.94;;;17.09;49.81
48942;BME280;35340;52.378;4.648;2023-02-11T07:20:16;103397.91;;;17.10;49.74
48942;BME280;35340;52.378;4.648;2023-02-11T07:22:42;103392.72;;;17.10;49.66
48942;BME280;35340;52.378;4.648;2023-02-11T07:25:07;103393.59;;;17.10;49.80
48942;BME280;35340;52.378;4.648;2023-02-11T07:27:33;103399.66;;;17.11;49.72
48942;BME280;35340;52.378;4.648;2023-02-11T07:29:58;103395.41;;;17.13;49.55
48942;BME280;35340;52.378;4.648;2023-02-11T07:32:24;103393.66;;;17.12;49.46
48942;BME280;35340;52.378;4.648;2023-02-11T07:34:49;103394.59;;;17.14;49.73
48942;BME280;35340;52.378;4.648;2023-02-11T07:37:14;103399.78;;;17.14;49.72
48942;BME280;35340;52.378;4.648;2023-02-11T07:39:40;103403.28;;;17.16;49.52
48942;BME280;35340;52.378;4.648;2023-02-11T07:42:05;103403.28;;;17.16;49.85
48942;BME280;35340;52.378;4.648;2023-02-11T07:44:31;103396.41;;;17.16;49.83
48942;BME280;35340;52.378;4.648;2023-02-11T07:46:58;103394.69;;;17.17;49.62
48942;BME280;35340;52.378;4.648;2023-02-11T07:49:24;103397.34;;;17.18;49.72
48942;BME280;35340;52.378;4.648;2023-02-11T07:51:49;103400.88;;;17.20;49.79
48942;BME280;35340;52.378;4.648;2023-02-11T07:54:16;103402.56;;;17.20;49.62
48942;BME280;35340;52.378;4.648;2023-02-11T07:56:41;103400.03;;;17.21;49.80
48942;BME280;35340;52.378;4.648;2023-02-11T07:59:07;103397.44;;;17.21;49.97
48942;BME280;35340;52.378;4.648;2023-02-11T08:01:32;103400.91;;;17.22;49.69
48942;BME280;35340;52.378;4.648;2023-02-11T08:03:59;103406.22;;;17.25;49.79
48942;BME280;35340;52.378;4.648;2023-02-11T08:06:28;103406.22;;;17.25;49.43
48942;BME280;35340;52.378;4.648;2023-02-11T08:08:54;103414.97;;;17.27;49.74
48942;BME280;35340;52.378;4.648;2023-02-11T08:11:23;103421.94;;;17.28;49.57
48942;BME280;35340;52.378;4.648;2023-02-11T08:13:49;103422.81;;;17.28;49.82
48942;BME280;35340;52.378;4.648;2023-02-11T08:18:43;103422.00;;;17.30;49.64
48942;BME280;35340;52.378;4.648;2023-02-11T08:21:09;103439.41;;;17.32;49.86
48942;BME280;35340;52.378;4.648;2023-02-11T08:23:37;103439.47;;;17.34;49.70
48942;BME280;35340;52.378;4.648;2023-02-11T08:26:06;103439.47;;;17.34;49.52
48942;BME280;35340;52.378;4.648;2023-02-11T08:28:35;103446.44;;;17.35;49.59
48942;BME280;35340;52.378;4.648;2023-02-11T08:31:09;103443.84;;;17.35;49.64
48942;BME280;35340;52.378;4.648;2023-02-11T08:33:35;103450.81;;;17.36;49.64
48942;BME280;35340;52.378;4.648;2023-02-11T08:36:16;103443.91;;;17.36;49.56
48942;BME280;35340;52.378;4.648;2023-02-11T08:38:42;103444.81;;;17.38;49.73
48942;BME280;35340;52.378;4.648;2023-02-11T08:41:08;103448.31;;;17.39;49.41
48942;BME280;35340;52.378;4.648;2023-02-11T08:43:35;103450.97;;;17.40;49.53
48942;BME280;35340;52.378;4.648;2023-02-11T08:46:01;103447.53;;;17.41;49.43
48942;BME280;35340;52.378;4.648;2023-02-11T08:48:28;103449.34;;;17.44;49.79
48942;BME280;35340;52.378;4.648;2023-02-11T08:50:54;103449.28;;;17.69;49.50
48942;BME280;35340;52.378;4.648;2023-02-11T08:53:20;103458.41;;;17.82;49.28
48942;BME280;35340;52.378;4.648;2023-02-11T08:55:53;103459.53;;;17.91;49.42
48942;BME280;35340;52.378;4.648;2023-02-11T08:58:19;103460.50;;;17.94;49.37
48942;BME280;35340;52.378;4.648;2023-02-11T09:00:46;103456.94;;;17.91;49.25
48942;BME280;35340;52.378;4.648;2023-02-11T09:03:12;103450.88;;;17.92;49.48
48942;BME280;35340;52.378;4.648;2023-02-11T09:05:48;103453.47;;;17.92;49.60
48942;BME280;35340;52.378;4.648;2023-02-11T09:08:15;103458.75;;;17.93;49.34
48942;BME280;35340;52.378;4.648;2023-02-11T09:10:41;103465.72;;;17.94;49.58
48942;BME280;35340;52.378;4.648;2023-02-11T09:13:07;103460.56;;;17.96;49.60
48942;BME280;35340;52.378;4.648;2023-02-11T09:15:33;103463.09;;;17.93;49.65
48942;BME280;35340;52.378;4.648;2023-02-11T09:17:59;103470.84;;;17.91;49.79
48942;BME280;35340;52.378;4.648;2023-02-11T09:20:25;103472.56;;;17.91;49.71
48942;BME280;35340;52.378;4.648;2023-02-11T09:22:51;103475.16;;;17.91;49.89
48942;BME280;35340;52.378;4.648;2023-02-11T09:25:17;103477.66;;;17.87;49.68
48942;BME280;35340;52.378;4.648;2023-02-11T09:27:42;103481.13;;;17.86;49.67
48942;BME280;35340;52.378;4.648;2023-02-11T09:30:09;103479.34;;;17.85;49.69
48942;BME280;35340;52.378;4.648;2023-02-11T09:32:34;103482.78;;;17.84;49.79
48942;BME280;35340;52.378;4.648;2023-02-11T09:34:59;103490.53;;;17.83;49.89
48942;BME280;35340;52.378;4.648;2023-02-11T09:37:25;103496.66;;;17.83;50.00
48942;BME280;35340;52.378;4.648;2023-02-11T09:39:50;103487.88;;;17.81;50.07
48942;BME280;35340;52.378;4.648;2023-02-11T09:42:25;103494.00;;;17.82;49.67
48942;BME280;35340;52.378;4.648;2023-02-11T09:44:55;103497.38;;;17.79;49.55
48942;BME280;35340;52.378;4.648;2023-02-11T09:47:33;103502.56;;;17.79;49.92
48942;BME280;35340;52.378;4.648;2023-02-11T09:50:11;103505.13;;;17.78;50.13
48942;BME280;35340;52.378;4.648;2023-02-11T09:53:15;103513.81;;;17.78;49.96
48942;BME280;35340;52.378;4.648;2023-02-11T09:55:45;103506.94;;;17.80;49.90
48942;BME280;35340;52.378;4.648;2023-02-11T09:58:15;103513.94;;;17.81;49.89
48942;BME280;35340;52.378;4.648;2023-02-11T10:00:51;103513.09;;;17.82;49.85
48942;BME280;35340;52.378;4.648;2023-02-11T10:17:46;103542.25;;;17.98;49.35
48942;BME280;35340;52.378;4.648;2023-02-11T10:22:54;103536.44;;;18.06;49.17
48942;BME280;35340;52.378;4.648;2023-02-11T10:25:23;103536.56;;;18.09;49.28
48942;BME280;35340;52.378;4.648;2023-02-11T10:27:50;103546.88;;;18.06;49.59
48942;BME280;35340;52.378;4.648;2023-02-11T10:30:31;103548.47;;;18.01;49.06
48942;BME280;35340;52.378;4.648;2023-02-11T10:33:10;103553.53;;;17.97;49.63
48942;BME280;35340;52.378;4.648;2023-02-11T10:35:37;103550.00;;;17.96;49.48
48942;BME280;35340;52.378;4.648;2023-02-11T10:38:03;103550.94;;;17.98;49.35
48942;BME280;35340;52.378;4.648;2023-02-11T10:40:30;103563.25;;;18.02;49.23
48942;BME280;35340;52.378;4.648;2023-02-11T10:43:02;103564.91;;;18.00;49.38
48942;BME280;35340;52.378;4.648;2023-02-11T10:45:56;103564.03;;;18.00;49.34
48942;BME280;35340;52.378;4.648;2023-02-11T10:48:41;103573.56;;;17.99;49.22
48942;BME280;35340;52.378;4.648;2023-02-11T10:51:15;103569.16;;;17.97;49.23
48942;BME280;35340;52.378;4.648;2023-02-11T10:53:41;103568.09;;;17.92;49.59
48942;BME280;35340;52.378;4.648;2023-02-11T10:56:10;103564.47;;;17.86;49.58
48942;BME280;35340;52.378;4.648;2023-02-11T11:01:06;103563.53;;;17.84;49.62
48942;BME280;35340;52.378;4.648;2023-02-11T11:03:36;103575.78;;;17.87;49.47
48942;BME280;35340;52.378;4.648;2023-02-11T11:06:05;103574.97;;;17.89;49.41
48942;BME280;35340;52.378;4.648;2023-02-11T11:08:45;103570.78;;;17.93;49.17
48942;BME280;35340;52.378;4.648;2023-02-11T11:11:16;103565.66;;;17.96;49.33
48942;BME280;35340;52.378;4.648;2023-02-11T11:16:22;103574.41;;;17.98;49.09
48942;BME280;35340;52.378;4.648;2023-02-11T11:18:53;103581.41;;;17.99;49.00
48942;BME280;35340;52.378;4.648;2023-02-11T11:21:38;103584.78;;;17.97;49.00
48942;BME280;35340;52.378;4.648;2023-02-11T11:26:46;103595.94;;;17.93;49.02
48942;BME280;35340;52.378;4.648;2023-02-11T11:29:17;103592.34;;;17.89;49.39
48942;BME280;35340;52.378;4.648;2023-02-11T11:31:56;103587.91;;;17.86;48.91
48942;BME280;35340;52.378;4.648;2023-02-11T11:34:37;103589.66;;;17.86;49.14
48942;BME280;35340;52.378;4.648;2023-02-11T11:37:34;103595.50;;;17.80;49.40
48942;BME280;35340;52.378;4.648;2023-02-11T11:40:27;103590.22;;;17.79;49.27
48942;BME280;35340;52.378;4.648;2023-02-11T11:45:51;103585.00;;;17.79;49.37
48942;BME280;35340;52.378;4.648;2023-02-11T11:48:21;103585.06;;;17.80;49.54
48942;BME280;35340;52.378;4.648;2023-02-11T11:50:51;103593.94;;;17.85;49.55
48942;BME280;35340;52.378;4.648;2023-02-11T11:53:24;103595.81;;;17.89;49.29
48942;BME280;35340;52.378;4.648;2023-02-11T11:56:01;103592.50;;;17.94;49.22
48942;BME280;35340;52.378;4.648;2023-02-11T11:58:29;103601.25;;;17.96;49.42
48942;BME280;35340;52.378;4.648;2023-02-11T12:04:09;103595.22;;;17.97;49.33
48942;BME280;35340;52.378;4.648;2023-02-11T12:13:01;103597.84;;;17.98;49.24
48942;BME280;35340;52.378;4.648;2023-02-11T12:18:39;103590.88;;;17.97;49.67
48942;BME280;35340;52.378;4.648;2023-02-11T12:24:17;103576.78;;;17.91;49.66
48942;BME280;35340;52.378;4.648;2023-02-11T12:29:54;103589.78;;;17.91;49.82
48942;BME280;35340;52.378;4.648;2023-02-11T12:38:13;103595.06;;;17.92;49.78
48942;BME280;35340;52.378;4.648;2023-02-11T12:41:00;103590.72;;;17.93;49.89
48942;BME280;35340;52.378;4.648;2023-02-11T12:43:37;103595.88;;;17.91;49.58
48942;BME280;35340;52.378;4.648;2023-02-11T12:51:18;103588.16;;;17.94;49.46
48942;BME280;35340;52.378;4.648;2023-02-11T12:56:30;103593.44;;;17.96;49.42
48942;BME280;35340;52.378;4.648;2023-02-11T12:58:59;103601.25;;;17.96;49.52
48942;BME280;35340;52.378;4.648;2023-02-11T13:01:37;103602.97;;;17.95;49.22
48942;BME280;35340;52.378;4.648;2023-02-11T13:04:14;103595.97;;;17.94;49.46
48942;BME280;35340;52.378;4.648;2023-02-11T13:07:21;103609.91;;;17.95;49.37
48942;BME280;35340;52.378;4.648;2023-02-11T13:09:58;103606.41;;;17.94;49.45
48942;BME280;35340;52.378;4.648;2023-02-11T13:12:28;103601.19;;;17.94;49.33
48942;BME280;35340;52.378;4.648;2023-02-11T13:15:14;103606.41;;;17.94;49.33
48942;BME280;35340;52.378;4.648;2023-02-11T13:17:47;103598.56;;;17.93;49.52
48942;BME280;35340;52.378;4.648;2023-02-11T13:29:07;103589.00;;;17.93;49.19
48942;BME280;35340;52.378;4.648;2023-02-11T13:31:37;103583.75;;;17.92;49.28
48942;BME280;35340;52.378;4.648;2023-02-11T13:34:02;103580.25;;;17.91;49.03
48942;BME280;35340;52.378;4.648;2023-02-11T13:36:53;103585.53;;;17.93;49.11
48942;BME280;35340;52.378;4.648;2023-02-11T13:39:19;103583.75;;;17.92;49.24
48942;BME280;35340;52.378;4.648;2023-02-11T13:41:45;103585.47;;;17.91;49.24
48942;BME280;35340;52.378;4.648;2023-02-11T13:47:11;103593.34;;;17.93;49.12
48942;BME280;35340;52.378;4.648;2023-02-11T13:49:49;103582.06;;;17.94;49.25
48942;BME280;35340;52.378;4.648;2023-02-11T13:52:29;103581.25;;;17.95;49.34
48942;BME280;35340;52.378;4.648;2023-02-11T13:57:34;103583.84;;;17.95;49.08
48942;BME280;35340;52.378;4.648;2023-02-11T14:16:16;103587.34;;;17.95;49.03
48942;BME280;35340;52.378;4.648;2023-02-11T14:21:23;103581.25;;;17.95;49.06
48942;BME280;35340;52.378;4.648;2023-02-11T14:26:39;103575.13;;;17.94;49.27
48942;BME280;35340;52.378;4.648;2023-02-11T14:29:17;103579.53;;;17.95;49.16
48942;BME280;35340;52.378;4.648;2023-02-11T14:35:06;103579.53;;;17.95;49.27
48942;BME280;35340;52.378;4.648;2023-02-11T14:37:52;103593.44;;;17.96;49.15
48942;BME280;35340;52.378;4.648;2023-02-11T14:40:32;103582.19;;;17.97;49.15
48942;BME280;35340;52.378;4.648;2023-02-11T14:43:10;103586.50;;;17.96;49.15
48942;BME280;35340;52.378;4.648;2023-02-11T14:45:37;103589.94;;;17.95;49.10
48942;BME280;35340;52.378;4.648;2023-02-11T14:48:06;103587.34;;;17.95;49.16
48942;BME280;35340;52.378;4.648;2023-02-11T14:50:42;103596.88;;;17.95;49.10
48942;BME280;35340;52.378;4.648;2023-02-11T14:53:15;103600.31;;;17.94;49.01
48942;BME280;35340;52.378;4.648;2023-02-11T14:55:48;103601.16;;;17.93;49.11
48942;BME280;35340;52.378;4.648;2023-02-11T14:58:24;103602.81;;;17.91;48.94
48942;BME280;35340;52.378;4.648;2023-02-11T15:00:57;103610.56;;;17.89;49.22
48942;BME280;35340;52.378;4.648;2023-02-11T15:03:46;103613.97;;;17.86;49.27
48942;BME280;35340;52.378;4.648;2023-02-11T15:06:21;103615.63;;;17.84;48.91
48942;BME280;35340;52.378;4.648;2023-02-11T15:08:51;103621.72;;;17.85;49.26
48942;BME280;35340;52.378;4.648;2023-02-11T15:11:20;103619.09;;;17.83;49.24
48942;BME280;35340;52.378;4.648;2023-02-11T15:13:47;103621.63;;;17.82;49.14
48942;BME280;35340;52.378;4.648;2023-02-11T15:16:24;103627.63;;;17.81;49.24
48942;BME280;35340;52.378;4.648;2023-02-11T15:18:56;103619.78;;;17.79;49.26
48942;BME280;35340;52.378;4.648;2023-02-11T15:21:26;103617.19;;;17.79;49.11